Time,TemperatureF,DewpointF,PressureIn,WindDirection,WindDirectionDegrees,WindSpeedMPH,WindSpeedGustMPH,Humidity,HourlyPrecipIn,Conditions,Clouds,dailyrainin,SoftwareType,DateUTC
2013-01-06 00:04:00,34.6,16.0,30.11,SSE,161,16.0,23.0,47,0.00,,,0.00,weatherlink.com 1.10,2013-01-06 07:04:00,
2013-01-06 00:19:00,34.5,16.0,30.10,SSE,148,8.0,24.0,46,0.00,,,0.00,weatherlink.com 1.10,2013-01-06 07:19:00,
2013-01-06 00:34:00,34.2,16.0,30.10,SE,146,12.0,22.0,48,0.00,,,0.00,weatherlink.com 1.10,2013-01-06 07:34:00,
2013-01-06 00:49:00,34.2,16.0,30.09,SE,146,14.0,21.0,48,0.00,,,0.00,weatherlink.com 1.10,2013-01-06 07:49:00,
2013-01-06 01:04:00,34.0,16.0,30.09,SE,144,12.0,18.0,47,0.00,,,0.00,weatherlink.com 1.10,2013-01-06 08:04:00,
2013-01-06 01:19:00,33.9,15.0,30.09,SE,146,7.0,13.0,47,0.00,,,0.00,weatherlink.com 1.10,2013-01-06 08:19:00,
2013-01-06 01:34:00,33.7,15.0,30.09,WSW,243,6.0,11.0,47,0.00,,,0.00,weatherlink.com 1.10,2013-01-06 08:34:00,
2013-01-06 01:49:00,33.2,15.0,30.09,SSE,168,4.0,10.0,48,0.00,,,0.00,weatherlink.com 1.10,2013-01-06 08:49:00,
2013-01-06 02:04:00,32.3,15.0,30.09,WSW,252,8.0,9.0,50,0.00,,,0.00,weatherlink.com 1.10,2013-01-06 09:04:00,
2013-01-06 02:19:00,31.8,15.0,30.09,WSW,242,5.0,9.0,51,0.00,,,0.00,weatherlink.com 1.10,2013-01-06 09:19:00,
2013-01-06 02:34:00,31.4,15.0,30.09,WSW,245,1.0,8.0,52,0.00,,,0.00,weatherlink.com 1.10,2013-01-06 09:34:00,
2013-01-06 02:50:00,31.5,16.0,30.09,WSW,246,5.0,13.0,52,0.00,,,0.00,weatherlink.com 1.10,2013-01-06 09:50:00,
2013-01-06 03:05:00,32.9,15.0,30.08,SSE,153,2.0,20.0,48,0.00,,,0.00,weatherlink.com 1.10,2013-01-06 10:05:00,
2013-01-06 03:20:00,32.6,15.0,30.08,SSW,203,2.0,13.0,48,0.00,,,0.00,weatherlink.com 1.10,2013-01-06 10:20:00,
2013-01-06 03:35:00,31.4,15.0,30.07,SSE,163,14.0,19.0,50,0.00,,,0.00,weatherlink.com 1.10,2013-01-06 10:35:00,
2013-01-06 03:50:00,32.7,15.0,30.04,SSE,150,17.0,22.0,48,0.00,,,0.00,weatherlink.com 1.10,2013-01-06 10:50:00,
2013-01-06 04:05:00,33.0,15.0,30.05,SSE,149,11.0,22.0,47,0.00,,,0.00,weatherlink.com 1.10,2013-01-06 11:05:00,
2013-01-06 04:20:00,32.6,14.0,30.05,SSE,161,12.0,25.0,47,0.00,,,0.00,weatherlink.com 1.10,2013-01-06 11:20:00,
2013-01-06 04:35:00,32.8,14.0,30.04,SSE,157,7.0,17.0,47,0.00,,,0.00,weatherlink.com 1.10,2013-01-06 11:35:00,
2013-01-06 04:50:00,33.2,14.0,30.04,SSE,163,7.0,18.0,46,0.00,,,0.00,weatherlink.com 1.10,2013-01-06 11:50:00,
2013-01-06 05:05:00,33.3,14.0,30.04,SE,141,17.0,20.0,46,0.00,,,0.00,weatherlink.com 1.10,2013-01-06 12:05:00,
2013-01-06 05:20:00,33.2,14.0,30.04,SSE,163,3.0,13.0,46,0.00,,,0.00,weatherlink.com 1.10,2013-01-06 12:20:00,
2013-01-06 05:35:00,33.0,15.0,30.02,SSE,159,8.0,18.0,47,0.00,,,0.00,weatherlink.com 1.10,2013-01-06 12:35:00,
2013-01-06 05:50:00,33.0,14.0,30.02,South,173,9.0,19.0,46,0.00,,,0.00,weatherlink.com 1.10,2013-01-06 12:50:00,
2013-01-06 06:05:00,32.9,15.0,30.02,SSE,154,6.0,19.0,47,0.00,,,0.00,weatherlink.com 1.10,2013-01-06 13:05:00,
2013-01-06 06:20:00,32.8,14.0,30.03,SSE,152,11.0,17.0,47,0.00,,,0.00,weatherlink.com 1.10,2013-01-06 13:20:00,
2013-01-06 06:35:00,32.5,15.0,30.04,WSW,250,1.0,12.0,49,0.00,,,0.00,weatherlink.com 1.10,2013-01-06 13:35:00,
2013-01-06 06:50:00,29.0,15.0,30.03,WSW,252,2.0,11.0,55,0.00,,,0.00,weatherlink.com 1.10,2013-01-06 13:50:00,
2013-01-06 07:05:00,32.5,16.0,30.03,ESE,121,7.0,11.0,50,0.00,,,0.00,weatherlink.com 1.10,2013-01-06 14:05:00,
2013-01-06 07:20:00,34.6,16.0,30.02,SE,134,7.0,20.0,47,0.00,,,0.00,weatherlink.com 1.10,2013-01-06 14:20:00,
2013-01-06 07:35:00,33.6,15.0,30.01,SSE,149,17.0,17.0,47,0.00,,,0.00,weatherlink.com 1.10,2013-01-06 14:35:00,
2013-01-06 07:50:00,33.4,15.0,30.01,SSE,151,10.0,22.0,47,0.00,,,0.00,weatherlink.com 1.10,2013-01-06 14:50:00,
2013-01-06 08:05:00,33.8,15.0,30.02,SSE,157,17.0,24.0,46,0.00,,,0.00,weatherlink.com 1.10,2013-01-06 15:05:00,
2013-01-06 08:20:00,33.8,15.0,30.02,SE,146,12.0,23.0,46,0.00,,,0.00,weatherlink.com 1.10,2013-01-06 15:20:00,
2013-01-06 08:35:00,33.9,15.0,30.02,SSE,167,8.0,22.0,47,0.00,,,0.00,weatherlink.com 1.10,2013-01-06 15:35:00,
2013-01-06 08:50:00,34.1,16.0,30.01,SE,137,8.0,21.0,47,0.00,,,0.00,weatherlink.com 1.10,2013-01-06 15:50:00,
2013-01-06 09:05:00,34.1,16.0,30.01,SE,142,12.0,24.0,47,0.00,,,0.00,weatherlink.com 1.10,2013-01-06 16:05:00,
2013-01-06 09:20:00,34.1,16.0,30.01,SSE,152,15.0,27.0,47,0.00,,,0.00,weatherlink.com 1.10,2013-01-06 16:20:00,
2013-01-06 09:35:00,33.7,16.0,30.01,SSE,148,9.0,22.0,49,0.00,,,0.00,weatherlink.com 1.10,2013-01-06 16:35:00,
2013-01-06 09:50:00,34.3,16.0,30.02,SSE,150,10.0,27.0,48,0.00,,,0.00,weatherlink.com 1.10,2013-01-06 16:50:00,
2013-01-06 10:05:00,35.1,17.0,30.01,SE,131,11.0,23.0,48,0.00,,,0.00,weatherlink.com 1.10,2013-01-06 17:05:00,
2013-01-06 10:20:00,36.2,18.0,30.01,SE,131,10.0,22.0,47,0.00,,,0.00,weatherlink.com 1.10,2013-01-06 17:20:00,
2013-01-06 10:35:00,38.1,18.0,30.01,SE,134,19.0,26.0,44,0.00,,,0.00,weatherlink.com 1.10,2013-01-06 17:35:00,
2013-01-06 10:50:00,37.6,18.0,30.01,SE,144,11.0,22.0,45,0.00,,,0.00,weatherlink.com 1.10,2013-01-06 17:50:00,
2013-01-06 11:05:00,37.6,18.0,30.00,SE,131,8.0,24.0,46,0.00,,,0.00,weatherlink.com 1.10,2013-01-06 18:05:00,
2013-01-06 11:20:00,37.5,19.0,30.00,SSE,161,13.0,19.0,48,0.00,,,0.00,weatherlink.com 1.10,2013-01-06 18:20:00,
2013-01-06 11:35:00,37.5,19.0,29.99,SE,131,9.0,24.0,47,0.00,,,0.00,weatherlink.com 1.10,2013-01-06 18:35:00,
2013-01-06 11:50:00,38.2,19.0,29.98,ESE,121,10.0,16.0,47,0.00,,,0.00,weatherlink.com 1.10,2013-01-06 18:50:00,
2013-01-06 12:05:00,38.5,20.0,29.98,ESE,119,8.0,24.0,47,0.00,,,0.00,weatherlink.com 1.10,2013-01-06 19:05:00,
2013-01-06 12:20:00,38.9,20.0,29.96,ESE,117,8.0,21.0,46,0.00,,,0.00,weatherlink.com 1.10,2013-01-06 19:20:00,
2013-01-06 12:35:00,39.7,20.0,29.96,SE,130,8.0,16.0,46,0.00,,,0.00,weatherlink.com 1.10,2013-01-06 19:35:00,
2013-01-06 12:51:00,40.2,20.0,29.95,SE,137,10.0,18.0,44,0.00,,,0.00,weatherlink.com 1.10,2013-01-06 19:51:00,
2013-01-06 13:20:00,41.9,22.0,29.94,SE,135,13.0,21.0,45,0.00,,,0.00,weatherlink.com 1.10,2013-01-06 20:20:00,
2013-01-06 13:36:00,42.6,22.0,29.95,SSE,155,5.0,14.0,45,0.00,,,0.00,weatherlink.com 1.10,2013-01-06 20:36:00,
2013-01-06 13:51:00,43.2,24.0,29.95,SSE,162,4.0,7.0,47,0.00,,,0.00,weatherlink.com 1.10,2013-01-06 20:51:00,
2013-01-06 14:06:00,43.1,24.0,29.95,SSE,165,4.0,10.0,47,0.00,,,0.00,weatherlink.com 1.10,2013-01-06 21:06:00,
2013-01-06 14:21:00,42.7,24.0,29.96,WSW,242,2.0,13.0,48,0.00,,,0.00,weatherlink.com 1.10,2013-01-06 21:21:00,
2013-01-06 14:36:00,42.6,24.0,29.96,SSE,159,6.0,12.0,49,0.00,,,0.00,weatherlink.com 1.10,2013-01-06 21:36:00,
2013-01-06 14:51:00,42.0,24.0,29.96,SSE,158,2.0,9.0,50,0.00,,,0.00,weatherlink.com 1.10,2013-01-06 21:51:00,
2013-01-06 15:06:00,41.7,25.0,29.96,West,281,2.0,13.0,51,0.00,,,0.00,weatherlink.com 1.10,2013-01-06 22:06:00,
2013-01-06 15:21:00,40.8,23.0,29.96,WNW,284,8.0,16.0,49,0.00,,,0.00,weatherlink.com 1.10,2013-01-06 22:21:00,
2013-01-06 15:36:00,40.3,23.0,29.96,WSW,249,11.0,15.0,51,0.00,,,0.00,weatherlink.com 1.10,2013-01-06 22:36:00,
2013-01-06 15:51:00,40.3,22.0,29.95,SSW,200,6.0,20.0,48,0.00,,,0.00,weatherlink.com 1.10,2013-01-06 22:51:00,
2013-01-06 16:06:00,40.4,22.0,29.95,West,261,11.0,18.0,49,0.00,,,0.00,weatherlink.com 1.10,2013-01-06 23:06:00,
2013-01-06 16:21:00,39.2,22.0,29.95,WSW,242,2.0,16.0,50,0.00,,,0.00,weatherlink.com 1.10,2013-01-06 23:21:00,
2013-01-06 16:36:00,38.5,22.0,29.97,WSW,252,4.0,15.0,51,0.00,,,0.00,weatherlink.com 1.10,2013-01-06 23:36:00,
2013-01-06 16:51:00,38.6,21.0,29.98,West,264,7.0,19.0,49,0.00,,,0.00,weatherlink.com 1.10,2013-01-06 23:51:00,
2013-01-06 17:06:00,38.4,20.0,29.98,SW,236,0.0,15.0,48,0.00,,,0.00,weatherlink.com 1.10,2013-01-07 00:06:00,
2013-01-06 17:21:00,37.8,20.0,29.98,WSW,243,1.0,12.0,49,0.00,,,0.00,weatherlink.com 1.10,2013-01-07 00:21:00,
2013-01-06 17:36:00,37.9,20.0,29.99,WSW,252,8.0,19.0,48,0.00,,,0.00,weatherlink.com 1.10,2013-01-07 00:36:00,
2013-01-06 17:51:00,37.3,20.0,29.99,WSW,248,0.0,10.0,49,0.00,,,0.00,weatherlink.com 1.10,2013-01-07 00:51:00,
2013-01-06 18:06:00,37.3,19.0,29.99,SW,234,8.0,22.0,48,0.00,,,0.00,weatherlink.com 1.10,2013-01-07 01:06:00,
2013-01-06 18:21:00,37.0,19.0,30.00,West,273,7.0,18.0,48,0.00,,,0.00,weatherlink.com 1.10,2013-01-07 01:21:00,
2013-01-06 18:36:00,36.8,19.0,30.01,WSW,250,12.0,21.0,48,0.00,,,0.00,weatherlink.com 1.10,2013-01-07 01:36:00,
2013-01-06 18:51:00,36.8,19.0,30.01,WSW,244,8.0,11.0,48,0.00,,,0.00,weatherlink.com 1.10,2013-01-07 01:51:00,
2013-01-06 19:06:00,36.7,19.0,30.01,West,273,2.0,12.0,49,0.00,,,0.00,weatherlink.com 1.10,2013-01-07 02:06:00,
2013-01-06 19:21:00,36.6,19.0,30.01,WSW,253,2.0,8.0,49,0.00,,,0.00,weatherlink.com 1.10,2013-01-07 02:21:00,
2013-01-06 19:36:00,36.5,19.0,30.02,WSW,257,13.0,15.0,49,0.00,,,0.00,weatherlink.com 1.10,2013-01-07 02:36:00,
2013-01-06 19:51:00,36.1,19.0,30.02,SSE,159,3.0,17.0,50,0.00,,,0.00,weatherlink.com 1.10,2013-01-07 02:51:00,
2013-01-06 20:06:00,36.4,19.0,30.02,WSW,256,6.0,14.0,49,0.00,,,0.00,weatherlink.com 1.10,2013-01-07 03:06:00,
2013-01-06 20:21:00,36.1,19.0,30.02,West,281,5.0,14.0,50,0.00,,,0.00,weatherlink.com 1.10,2013-01-07 03:21:00,
2013-01-06 20:36:00,36.3,19.0,30.02,SSW,205,1.0,17.0,50,0.00,,,0.00,weatherlink.com 1.10,2013-01-07 03:36:00,
2013-01-06 20:51:00,36.1,19.0,30.02,South,174,0.0,16.0,50,0.00,,,0.00,weatherlink.com 1.10,2013-01-07 03:51:00,
2013-01-06 21:06:00,36.0,19.0,30.01,SW,236,1.0,11.0,51,0.00,,,0.00,weatherlink.com 1.10,2013-01-07 04:06:00,
2013-01-06 21:21:00,35.9,19.0,30.01,WSW,242,7.0,15.0,51,0.00,,,0.00,weatherlink.com 1.10,2013-01-07 04:21:00,
2013-01-06 21:36:00,36.0,19.0,30.00,South,181,0.0,20.0,51,0.00,,,0.00,weatherlink.com 1.10,2013-01-07 04:36:00,
2013-01-06 21:51:00,36.0,19.0,30.01,WSW,242,0.0,20.0,51,0.00,,,0.00,weatherlink.com 1.10,2013-01-07 04:51:00,
2013-01-06 22:21:00,36.2,19.0,30.02,SSE,152,5.0,8.0,50,0.00,,,0.00,weatherlink.com 1.10,2013-01-07 05:21:00,
2013-01-06 22:36:00,36.2,19.0,30.02,South,179,8.0,12.0,51,0.00,,,0.00,weatherlink.com 1.10,2013-01-07 05:36:00,
2013-01-06 22:51:00,36.0,19.0,30.02,WSW,252,4.0,10.0,51,0.00,,,0.00,weatherlink.com 1.10,2013-01-07 05:51:00,
2013-01-06 23:06:00,36.1,20.0,30.02,WSW,242,7.0,14.0,52,0.00,,,0.00,weatherlink.com 1.10,2013-01-07 06:06:00,
2013-01-06 23:21:00,36.1,19.0,30.02,West,260,3.0,13.0,51,0.00,,,0.00,weatherlink.com 1.10,2013-01-07 06:21:00,
2013-01-06 23:36:00,36.0,19.0,30.02,SSE,159,2.0,13.0,51,0.00,,,0.00,weatherlink.com 1.10,2013-01-07 06:36:00,
2013-01-06 23:51:00,36.4,20.0,30.01,WSW,244,6.0,18.0,51,0.00,,,0.00,weatherlink.com 1.10,2013-01-07 06:51:00,